Time;durP1;ratioP1;P1;durP2;ratioP2;P2;SDS_P1;SDS_P2;PMS_P1;PMS_P2;Temp;Humidity;BMP_temperature;BMP_pressure;BME280_temperature;BME280_humidity;BME280_pressure;Samples;Min_cycle;Max_cycle;Signal;HPM_P1;HPM_P2
2023/11/19 00:00:25;;;;;;;72.85;17.00;;;11.50;97.50;;;;;;4985985;28;20102;-48
2023/11/19 00:02:51;;;;;;;94.57;19.30;;;11.50;97.60;;;;;;4986056;28;20498;-51
2023/11/19 00:05:17;;;;;;;67.90;18.27;;;11.50;97.90;;;;;;4986196;28;20024;-51
2023/11/19 00:07:42;;;;;;;77.32;19.48;;;11.50;97.70;;;;;;4969832;28;20507;-52
2023/11/19 00:10:10;;;;;;;88.07;19.67;;;11.50;97.70;;;;;;4971232;28;20019;-52
2023/11/19 00:12:37;;;;;;;95.03;19.80;;;11.50;97.70;;;;;;4969485;28;20035;-52
2023/11/19 00:15:02;;;;;;;101.97;19.98;;;11.50;97.70;;;;;;4985541;28;20055;-51
2023/11/19 00:17:28;;;;;;;93.47;19.15;;;11.50;97.70;;;;;;4986015;28;20451;-52
2023/11/19 00:19:53;;;;;;;69.00;17.63;;;11.50;97.70;;;;;;4985857;28;20438;-51
2023/11/19 00:22:21;;;;;;;79.20;18.30;;;11.50;97.80;;;;;;4985696;28;20035;-52
2023/11/19 00:24:46;;;;;;;72.63;16.52;;;11.50;97.70;;;;;;4969603;28;20232;-52
2023/11/19 00:27:12;;;;;;;89.03;19.40;;;11.50;97.80;;;;;;4985645;28;20027;-52
2023/11/19 00:29:37;;;;;;;70.47;17.27;;;11.50;97.80;;;;;;4970651;28;20031;-52
2023/11/19 00:32:05;;;;;;;74.80;17.95;;;11.50;97.80;;;;;;4970529;28;20040;-51
2023/11/19 00:34:30;;;;;;;77.57;18.27;;;11.50;97.90;;;;;;4985087;28;20015;-51
2023/11/19 00:36:56;;;;;;;69.72;17.13;;;11.50;97.90;;;;;;4985083;28;20051;-52
2023/11/19 00:39:22;;;;;;;94.80;17.80;;;11.40;97.90;;;;;;4984375;28;20476;-52
2023/11/19 00:41:48;;;;;;;73.85;17.17;;;11.50;98.00;;;;;;4984141;28;20027;-52
2023/11/19 00:44:13;;;;;;;64.55;16.98;;;11.40;98.00;;;;;;4984320;28;20023;-51
2023/11/19 00:46:39;;;;;;;74.32;16.83;;;11.40;98.00;;;;;;4969245;28;20043;-52
2023/11/19 00:49:05;;;;;;;66.82;16.17;;;11.40;98.00;;;;;;4984108;28;20102;-52
2023/11/19 00:51:31;;;;;;;64.60;15.80;;;11.40;97.90;;;;;;4968140;29;20019;-52
2023/11/19 00:53:57;;;;;;;82.30;17.50;;;11.40;97.90;;;;;;4983918;28;20035;-52
2023/11/19 00:56:24;;;;;;;75.88;15.65;;;11.40;98.00;;;;;;4983917;28;20029;-52
2023/11/19 00:58:49;;;;;;;71.05;18.42;;;11.40;98.00;;;;;;4983876;28;20035;-52
2023/11/19 01:01:15;;;;;;;68.95;16.90;;;11.40;98.10;;;;;;4983950;28;20038;-52
2023/11/19 01:03:40;;;;;;;62.72;15.13;;;11.50;98.10;;;;;;4983923;28;20027;-52
2023/11/19 01:06:06;;;;;;;54.97;14.20;;;11.40;98.10;;;;;;4969162;28;20046;-51
2023/11/19 01:08:32;;;;;;;60.38;14.05;;;11.40;98.40;;;;;;4969169;28;20032;-52
2023/11/19 01:10:57;;;;;;;58.42;14.20;;;11.40;98.30;;;;;;4984129;28;20046;-52
2023/11/19 01:13:24;;;;;;;51.15;13.40;;;11.40;98.30;;;;;;4984130;28;20043;-52
2023/11/19 01:15:50;;;;;;;52.75;13.40;;;11.40;98.30;;;;;;4967846;28;20027;-52
2023/11/19 01:18:16;;;;;;;57.47;13.90;;;11.40;98.30;;;;;;4968880;28;20031;-52
2023/11/19 01:20:42;;;;;;;62.75;13.65;;;11.40;98.20;;;;;;4983685;28;20034;-52
2023/11/19 01:23:07;;;;;;;61.83;13.75;;;11.40;98.20;;;;;;4969013;28;20451;-52
2023/11/19 01:25:34;;;;;;;67.22;14.20;;;11.50;98.20;;;;;;4968835;28;20041;-52
2023/11/19 01:27:59;;;;;;;41.70;14.07;;;11.40;98.20;;;;;;4983544;28;20110;-52
2023/11/19 01:30:25;;;;;;;54.53;13.32;;;11.40;98.20;;;;;;4967405;29;20042;-52
2023/11/19 01:32:51;;;;;;;47.85;12.43;;;11.40;98.10;;;;;;4968668;28;20036;-52
2023/11/19 01:35:16;;;;;;;67.72;13.32;;;11.40;98.20;;;;;;4969025;28;20118;-52
2023/11/19 01:37:42;;;;;;;54.78;12.65;;;11.40;98.20;;;;;;4932506;28;1062786;-51
2023/11/19 01:40:10;;;;;;;54.47;12.85;;;11.40;98.20;;;;;;4969348;28;20031;-52
2023/11/19 01:42:39;;;;;;;43.97;11.38;;;11.40;98.30;;;;;;4983995;28;20440;-51
2023/11/19 01:45:07;;;;;;;44.58;12.18;;;11.40;98.30;;;;;;4984388;28;20064;-52
2023/11/19 01:47:33;;;;;;;44.17;11.55;;;11.40;98.30;;;;;;4969353;28;20058;-51
2023/11/19 01:49:58;;;;;;;49.67;12.50;;;11.40;98.30;;;;;;4984122;28;20042;-52
2023/11/19 01:52:24;;;;;;;37.72;9.90;;;11.40;98.30;;;;;;4967815;28;20038;-52
2023/11/19 01:54:50;;;;;;;45.50;10.23;;;11.40;98.40;;;;;;4984018;28;20091;-52
2023/11/19 01:57:15;;;;;;;36.72;10.88;;;11.40;98.40;;;;;;4984030;28;20035;-52
2023/11/19 01:59:41;;;;;;;38.53;10.50;;;11.40;98.40;;;;;;4983401;28;20087;-52
2023/11/19 02:02:07;;;;;;;40.20;10.00;;;11.40;98.50;;;;;;4983843;28;20091;-52
2023/11/19 02:04:32;;;;;;;38.42;10.77;;;11.40;98.40;;;;;;4983992;28;20046;-52
2023/11/19 02:06:58;;;;;;;39.00;10.35;;;11.40;98.40;;;;;;4983809;28;20035;-51
2023/11/19 02:09:24;;;;;;;39.25;9.93;;;11.40;98.40;;;;;;4983847;28;20049;-52
2023/11/19 02:11:51;;;;;;;43.83;10.52;;;11.40;98.50;;;;;;4983773;28;20031;-52
2023/11/19 02:14:17;;;;;;;36.22;9.20;;;11.40;98.50;;;;;;4967510;28;20027;-52
2023/11/19 02:16:43;;;;;;;39.00;10.73;;;11.40;98.50;;;;;;4983725;28;20101;-52
2023/11/19 02:19:10;;;;;;;37.53;9.90;;;11.40;98.50;;;;;;4983611;28;20023;-52
2023/11/19 02:21:36;;;;;;;44.95;11.32;;;11.40;98.50;;;;;;4983365;28;20030;-53
2023/11/19 02:24:04;;;;;;;29.55;9.45;;;11.50;98.50;;;;;;4968675;28;20059;-52
2023/11/19 02:26:32;;;;;;;33.28;9.43;;;11.40;98.50;;;;;;4983478;28;20027;-52
2023/11/19 02:28:58;;;;;;;31.30;9.70;;;11.40;98.50;;;;;;4983390;28;20046;-52
2023/11/19 02:31:24;;;;;;;37.35;10.20;;;11.40;98.60;;;;;;4983180;28;20087;-52
2023/11/19 02:33:50;;;;;;;27.70;9.32;;;11.40;98.70;;;;;;4983337;28;20038;-51
2023/11/19 02:36:16;;;;;;;34.25;9.52;;;11.40;99.00;;;;;;4983117;28;20047;-52
2023/11/19 02:38:42;;;;;;;50.80;10.18;;;11.40;99.30;;;;;;4982978;28;20035;-52
2023/11/19 02:41:08;;;;;;;27.13;9.05;;;11.50;99.50;;;;;;4968387;28;20114;-52
2023/11/19 02:43:34;;;;;;;31.98;10.00;;;11.50;99.50;;;;;;4968516;28;20073;-52
2023/11/19 02:46:04;;;;;;;33.95;9.43;;;11.50;99.70;;;;;;4983315;28;20031;-52
2023/11/19 02:48:30;;;;;;;29.10;8.80;;;11.50;99.70;;;;;;4968370;28;20038;-52
2023/11/19 02:50:58;;;;;;;23.08;8.40;;;11.50;99.80;;;;;;4968533;29;20047;-51
2023/11/19 02:53:24;;;;;;;38.95;8.98;;;11.50;99.80;;;;;;4983187;28;20023;-51
2023/11/19 02:55:50;;;;;;;25.95;8.70;;;11.50;99.90;;;;;;4968211;28;20042;-52
2023/11/19 02:58:24;;;;;;;24.33;7.65;;;11.50;99.90;;;;;;4983175;28;20480;-52
2023/11/19 03:00:57;;;;;;;31.50;8.57;;;11.50;99.90;;;;;;4981950;28;20047;-51
2023/11/19 03:03:30;;;;;;;27.90;8.48;;;11.50;99.90;;;;;;4982038;28;20035;-51
2023/11/19 03:05:56;;;;;;;19.75;7.47;;;11.50;99.90;;;;;;4982520;28;20041;-52
2023/11/19 03:08:22;;;;;;;21.05;7.90;;;11.50;99.90;;;;;;4968059;28;20046;-51
2023/11/19 03:10:48;;;;;;;36.42;8.90;;;11.50;99.90;;;;;;4967210;28;20031;-51
2023/11/19 03:13:14;;;;;;;30.00;8.63;;;11.50;99.90;;;;;;4982748;28;20042;-52
2023/11/19 03:15:40;;;;;;;31.63;7.95;;;11.50;99.90;;;;;;4967548;29;20028;-52
2023/11/19 03:18:05;;;;;;;30.15;8.00;;;11.50;99.90;;;;;;4982835;28;20038;-52
2023/11/19 03:20:31;;;;;;;23.75;8.40;;;11.50;99.90;;;;;;4967895;28;20035;-51
2023/11/19 03:23:01;;;;;;;21.45;7.72;;;11.50;99.90;;;;;;4982909;28;20027;-51
2023/11/19 03:25:32;;;;;;;20.80;7.60;;;11.50;99.90;;;;;;4982535;28;20090;-52
2023/11/19 03:27:58;;;;;;;23.33;7.82;;;11.50;99.90;;;;;;4982073;28;20034;-51
2023/11/19 03:30:24;;;;;;;25.00;7.72;;;11.50;99.90;;;;;;4982744;28;20023;-52
2023/11/19 03:32:50;;;;;;;20.98;7.43;;;11.50;99.90;;;;;;4967764;28;20055;-51
2023/11/19 03:35:15;;;;;;;25.85;8.50;;;11.50;99.90;;;;;;4982621;28;20031;-52
2023/11/19 03:37:41;;;;;;;22.00;8.93;;;11.50;99.90;;;;;;4967526;28;20039;-52
2023/11/19 03:40:07;;;;;;;28.20;7.65;;;11.50;99.90;;;;;;4982669;28;20118;-51
2023/11/19 03:42:33;;;;;;;19.27;7.30;;;11.50;99.90;;;;;;4982555;28;20035;-51
2023/11/19 03:44:59;;;;;;;25.42;8.07;;;11.50;99.90;;;;;;4982712;28;20058;-51
2023/11/19 03:47:24;;;;;;;22.10;7.90;;;11.50;99.90;;;;;;4966277;28;20027;-52
2023/11/19 03:49:50;;;;;;;18.45;6.90;;;11.50;99.90;;;;;;4967767;28;20054;-52
2023/11/19 03:52:16;;;;;;;21.05;7.20;;;11.50;99.90;;;;;;4967639;29;20032;-52
2023/11/19 03:54:42;;;;;;;23.40;7.40;;;11.50;99.90;;;;;;4967588;29;20047;-51
2023/11/19 03:57:07;;;;;;;23.77;7.72;;;11.60;99.90;;;;;;4982321;28;20379;-51
2023/11/19 03:59:33;;;;;;;19.73;8.40;;;11.50;99.90;;;;;;4982503;28;20027;-52
2023/11/19 04:02:00;;;;;;;20.48;7.55;;;11.60;99.90;;;;;;4982464;28;20020;-52
2023/11/19 04:04:27;;;;;;;18.85;7.13;;;11.50;99.90;;;;;;4966245;28;20042;-52
2023/11/19 04:06:52;;;;;;;19.55;6.93;;;11.50;99.90;;;;;;4982368;28;20027;-52
2023/11/19 04:09:18;;;;;;;15.55;6.53;;;11.50;99.90;;;;;;4982492;28;20058;-51
2023/11/19 04:11:46;;;;;;;24.42;7.40;;;11.50;99.90;;;;;;4982695;28;20027;-51
2023/11/19 04:14:13;;;;;;;16.83;5.75;;;11.50;99.90;;;;;;4968062;28;20543;-52
2023/11/19 04:16:38;;;;;;;12.88;5.70;;;11.50;99.90;;;;;;4966919;28;20062;-52
2023/11/19 04:19:04;;;;;;;12.55;5.30;;;11.50;99.90;;;;;;4982650;28;20416;-52
2023/11/19 04:21:30;;;;;;;15.73;5.47;;;11.50;99.90;;;;;;4982958;28;20034;-52
2023/11/19 04:23:56;;;;;;;16.60;5.90;;;11.50;99.90;;;;;;4985743;28;20047;-52
2023/11/19 04:26:21;;;;;;;13.38;5.72;;;11.50;99.90;;;;;;4969405;29;20059;-51
2023/11/19 04:28:49;;;;;;;13.32;5.38;;;11.50;99.90;;;;;;4985913;28;20581;-52
2023/11/19 04:31:16;;;;;;;14.77;4.10;;;11.50;99.90;;;;;;4969289;29;20026;-52
2023/11/19 04:33:41;;;;;;;16.15;4.30;;;11.40;99.90;;;;;;4985522;28;20159;-51
2023/11/19 04:36:07;;;;;;;15.95;5.18;;;11.40;99.90;;;;;;4970892;28;20031;-51
2023/11/19 04:38:33;;;;;;;11.38;4.93;;;11.40;99.90;;;;;;4969222;28;20046;-51
2023/11/19 04:40:59;;;;;;;12.98;4.93;;;11.40;99.90;;;;;;4985548;28;20031;-52
2023/11/19 04:43:24;;;;;;;10.18;4.15;;;11.40;99.90;;;;;;4970518;28;20035;-52
2023/11/19 04:45:50;;;;;;;11.52;4.93;;;11.40;99.90;;;;;;4985199;28;20034;-52
2023/11/19 04:48:15;;;;;;;14.07;4.57;;;11.40;99.90;;;;;;4969260;29;20039;-51
2023/11/19 04:50:41;;;;;;;15.40;4.40;;;11.40;99.90;;;;;;4970338;28;20042;-52
2023/11/19 04:53:06;;;;;;;11.18;4.07;;;11.40;99.90;;;;;;4985126;28;20063;-51
2023/11/19 04:55:32;;;;;;;7.32;4.13;;;11.50;99.90;;;;;;4970492;28;20476;-52
2023/11/19 04:57:57;;;;;;;10.60;4.53;;;11.50;99.90;;;;;;4970437;29;20129;-52
2023/11/19 05:00:23;;;;;;;10.60;3.58;;;11.40;99.90;;;;;;4970152;29;20086;-52
2023/11/19 05:02:48;;;;;;;14.98;4.70;;;11.40;99.90;;;;;;4984960;28;20031;-52
2023/11/19 05:05:15;;;;;;;11.85;4.32;;;11.40;99.90;;;;;;4970197;28;20099;-52
2023/11/19 05:07:41;;;;;;;10.40;4.20;;;11.50;99.90;;;;;;4970222;28;20028;-52
2023/11/19 05:10:07;;;;;;;9.45;3.55;;;11.40;99.90;;;;;;4969898;29;20031;-51
2023/11/19 05:12:32;;;;;;;17.30;4.93;;;11.50;99.90;;;;;;4984763;28;20098;-51
2023/11/19 05:14:58;;;;;;;10.68;3.83;;;11.40;99.90;;;;;;4970083;28;20035;-52
2023/11/19 05:17:24;;;;;;;12.23;5.05;;;11.50;99.90;;;;;;4969901;28;20059;-52
2023/11/19 05:19:49;;;;;;;11.43;4.13;;;11.50;99.90;;;;;;4968552;29;20031;-51
2023/11/19 05:22:15;;;;;;;12.70;4.50;;;11.50;99.90;;;;;;4969805;28;20046;-52
2023/11/19 05:24:40;;;;;;;10.82;3.85;;;11.40;99.90;;;;;;4984510;28;20042;-52
2023/11/19 05:27:07;;;;;;;9.68;3.83;;;11.50;99.90;;;;;;4984651;28;20032;-52
2023/11/19 05:29:33;;;;;;;7.40;4.05;;;11.50;99.90;;;;;;4984452;28;20031;-52
2023/11/19 05:31:58;;;;;;;7.82;4.10;;;11.50;99.90;;;;;;4984363;28;20118;-52
2023/11/19 05:34:24;;;;;;;9.82;3.63;;;11.50;99.90;;;;;;4968691;28;20059;-51
2023/11/19 05:36:50;;;;;;;7.22;3.15;;;11.50;99.90;;;;;;4984206;28;20030;-52
2023/11/19 05:39:17;;;;;;;11.75;4.03;;;11.50;99.90;;;;;;4984475;28;20031;-51
2023/11/19 05:41:43;;;;;;;6.72;3.20;;;11.50;99.90;;;;;;4984274;28;20028;-52
2023/11/19 05:44:08;;;;;;;13.93;3.33;;;11.40;99.90;;;;;;4984353;28;20297;-52
2023/11/19 05:46:40;;;;;;;6.18;3.75;;;11.50;99.90;;;;;;4969418;28;20027;-52
2023/11/19 05:49:05;;;;;;;12.73;4.03;;;11.50;99.90;;;;;;4983601;28;20042;-52
2023/11/19 05:51:31;;;;;;;8.55;3.60;;;11.50;99.90;;;;;;4984002;28;20118;-51
2023/11/19 05:53:57;;;;;;;7.28;3.78;;;11.50;99.90;;;;;;4984253;28;20050;-52
2023/11/19 05:56:23;;;;;;;9.73;3.78;;;11.50;99.90;;;;;;4983986;28;20030;-51
2023/11/19 05:58:49;;;;;;;10.13;3.67;;;11.40;99.90;;;;;;4984253;28;20091;-51
2023/11/19 06:01:14;;;;;;;8.85;3.30;;;11.50;99.90;;;;;;4983708;28;20487;-52
2023/11/19 06:03:40;;;;;;;6.78;3.20;;;11.50;99.90;;;;;;4984006;28;20050;-51
2023/11/19 06:06:06;;;;;;;6.35;2.95;;;11.50;99.90;;;;;;4983976;28;20034;-52
2023/11/19 06:08:32;;;;;;;7.10;2.70;;;11.50;99.90;;;;;;4969073;28;20035;-51
2023/11/19 06:10:57;;;;;;;8.23;3.20;;;11.50;99.90;;;;;;4983838;28;20143;-52
2023/11/19 06:13:23;;;;;;;7.45;3.17;;;11.50;99.90;;;;;;4983777;28;20438;-52
2023/11/19 06:15:50;;;;;;;6.07;2.80;;;11.50;99.90;;;;;;4967480;29;20403;-52
2023/11/19 06:18:16;;;;;;;4.32;2.60;;;11.50;99.90;;;;;;4983547;28;20020;-51
2023/11/19 06:20:43;;;;;;;5.82;2.65;;;11.50;99.90;;;;;;4968766;28;20050;-51
2023/11/19 06:23:08;;;;;;;6.53;2.60;;;11.50;99.90;;;;;;4983390;28;20403;-52
2023/11/19 06:25:35;;;;;;;6.90;2.75;;;11.50;99.90;;;;;;4983763;28;20118;-51
2023/11/19 06:28:00;;;;;;;7.35;2.97;;;11.50;99.90;;;;;;4968656;28;20039;-51
2023/11/19 06:30:28;;;;;;;5.55;2.67;;;11.50;99.90;;;;;;4967229;29;20042;-51
2023/11/19 06:32:53;;;;;;;8.05;2.50;;;11.50;99.90;;;;;;4968548;28;20019;-52
2023/11/19 06:35:19;;;;;;;6.07;2.50;;;11.50;99.90;;;;;;4968548;28;20094;-51
2023/11/19 06:37:45;;;;;;;5.60;2.63;;;11.50;99.90;;;;;;4983092;28;20031;-52
2023/11/19 06:40:12;;;;;;;6.85;3.13;;;11.50;99.90;;;;;;4983340;28;20047;-51
2023/11/19 06:42:38;;;;;;;6.68;2.70;;;11.50;99.90;;;;;;4967285;29;20027;-52
2023/11/19 06:45:04;;;;;;;4.78;2.17;;;11.50;99.90;;;;;;4983175;28;20031;-52
2023/11/19 06:47:29;;;;;;;6.93;2.35;;;11.50;99.90;;;;;;4983148;28;20027;-51
2023/11/19 06:49:55;;;;;;;5.65;2.47;;;11.60;99.90;;;;;;4983070;28;20031;-51
2023/11/19 06:52:21;;;;;;;6.72;1.90;;;11.50;99.90;;;;;;4982972;28;20058;-51
2023/11/19 06:54:46;;;;;;;4.70;1.75;;;11.50;99.90;;;;;;4983145;28;20042;-52
2023/11/19 06:57:12;;;;;;;5.53;2.53;;;11.50;99.90;;;;;;4983107;28;20110;-51
2023/11/19 06:59:38;;;;;;;3.38;1.85;;;11.50;99.90;;;;;;4983079;28;20114;-51
2023/11/19 07:02:04;;;;;;;4.18;1.90;;;11.60;99.90;;;;;;4982996;28;20025;-52
2023/11/19 07:04:30;;;;;;;5.07;1.98;;;11.60;99.90;;;;;;4983069;28;20087;-52
2023/11/19 07:06:56;;;;;;;3.10;1.88;;;11.60;99.90;;;;;;4982821;28;20027;-51
2023/11/19 07:09:22;;;;;;;6.30;2.05;;;11.60;99.90;;;;;;4966894;29;20027;-51
2023/11/19 07:11:50;;;;;;;3.22;1.75;;;11.60;99.90;;;;;;4966594;29;20031;-51
2023/11/19 07:14:16;;;;;;;4.22;2.10;;;11.60;99.90;;;;;;4966787;29;20070;-51
2023/11/19 07:16:41;;;;;;;4.07;2.00;;;11.60;99.90;;;;;;4982904;28;20027;-51
2023/11/19 07:19:07;;;;;;;4.10;2.03;;;11.60;99.90;;;;;;4966709;29;20035;-51
2023/11/19 07:21:33;;;;;;;5.15;1.80;;;11.60;99.90;;;;;;4966811;29;20036;-51
2023/11/19 07:23:58;;;;;;;3.88;2.20;;;11.60;99.90;;;;;;4982996;28;20038;-51
2023/11/19 07:26:24;;;;;;;4.00;2.30;;;11.60;99.90;;;;;;4980912;28;20443;-51
2023/11/19 07:28:50;;;;;;;5.70;2.92;;;11.60;99.90;;;;;;4982685;28;20063;-51
2023/11/19 07:31:16;;;;;;;3.92;1.90;;;11.60;99.90;;;;;;4967863;29;20074;-51
2023/11/19 07:33:42;;;;;;;2.97;1.73;;;11.70;99.90;;;;;;4982709;28;20043;-51
2023/11/19 07:36:09;;;;;;;2.42;1.55;;;11.70;99.90;;;;;;4967819;28;20024;-51
2023/11/19 07:38:34;;;;;;;3.88;1.83;;;11.70;99.90;;;;;;4982358;28;20095;-51
2023/11/19 07:41:00;;;;;;;3.15;1.67;;;11.70;99.90;;;;;;4982917;28;20024;-51
2023/11/19 07:43:26;;;;;;;3.88;2.00;;;11.70;99.90;;;;;;4982606;28;20082;-51
2023/11/19 07:45:51;;;;;;;3.58;2.10;;;11.70;99.90;;;;;;4982582;28;20043;-51
2023/11/19 07:48:22;;;;;;;3.65;1.58;;;11.70;99.90;;;;;;4982677;28;20031;-51
2023/11/19 07:50:50;;;;;;;2.70;1.55;;;11.70;99.90;;;;;;4982082;28;20035;-51
2023/11/19 07:53:16;;;;;;;2.58;1.90;;;11.70;99.90;;;;;;4967737;28;20039;-51
2023/11/19 07:55:41;;;;;;;2.47;1.83;;;11.70;99.90;;;;;;4967336;28;20039;-51
2023/11/19 07:58:07;;;;;;;3.90;1.65;;;11.70;99.90;;;;;;4969811;28;20027;-51
2023/11/19 08:00:32;;;;;;;4.40;1.67;;;11.80;99.90;;;;;;4970595;28;20110;-51
2023/11/19 08:02:58;;;;;;;2.72;1.67;;;11.80;99.90;;;;;;4968694;29;20046;-51
2023/11/19 08:05:24;;;;;;;3.42;1.80;;;11.80;99.90;;;;;;4986135;28;20031;-51
2023/11/19 08:07:51;;;;;;;2.13;1.55;;;11.80;99.90;;;;;;4985952;28;20038;-51
2023/11/19 08:10:16;;;;;;;4.68;1.63;;;11.80;99.90;;;;;;4986024;28;20042;-51
2023/11/19 08:12:42;;;;;;;2.50;1.63;;;11.80;99.90;;;;;;4970894;28;20487;-51
2023/11/19 08:15:08;;;;;;;2.80;1.85;;;11.80;99.90;;;;;;4970987;29;20035;-52
2023/11/19 08:17:33;;;;;;;4.18;2.08;;;11.80;99.90;;;;;;4983609;28;20058;-51
2023/11/19 08:20:00;;;;;;;5.00;1.60;;;11.80;99.90;;;;;;4962968;29;20479;-51
2023/11/19 08:22:25;;;;;;;3.85;1.88;;;11.80;99.90;;;;;;4981809;28;20039;-52
2023/11/19 08:24:51;;;;;;;3.83;1.80;;;11.80;99.90;;;;;;4950565;29;20397;-51
2023/11/19 08:27:16;;;;;;;2.80;1.58;;;11.80;99.90;;;;;;4982220;28;20488;-51
2023/11/19 08:29:42;;;;;;;3.15;1.45;;;11.80;99.90;;;;;;4982196;28;20042;-51
2023/11/19 08:32:07;;;;;;;2.10;1.70;;;11.80;99.90;;;;;;4981793;28;20040;-51
2023/11/19 08:34:33;;;;;;;3.45;1.52;;;11.80;99.90;;;;;;4966367;29;20039;-51
2023/11/19 08:36:59;;;;;;;2.28;1.38;;;11.80;99.90;;;;;;4981848;28;20395;-52
2023/11/19 08:39:25;;;;;;;2.83;1.60;;;11.80;99.90;;;;;;4982572;28;20039;-51
2023/11/19 08:41:50;;;;;;;2.97;1.42;;;11.90;99.90;;;;;;4951383;29;20428;-51
2023/11/19 08:44:16;;;;;;;2.47;1.60;;;11.90;99.90;;;;;;4982115;28;20024;-51
2023/11/19 08:46:51;;;;;;;3.00;1.50;;;11.80;99.90;;;;;;4951188;29;20027;-52
2023/11/19 08:49:16;;;;;;;3.47;1.70;;;11.90;99.90;;;;;;4951316;29;20028;-51
2023/11/19 08:51:42;;;;;;;3.35;1.40;;;11.90;99.90;;;;;;4951171;29;20283;-51
2023/11/19 08:54:08;;;;;;;2.15;1.58;;;11.90;99.90;;;;;;4981935;28;20107;-52
2023/11/19 08:56:35;;;;;;;4.22;1.70;;;11.90;99.90;;;;;;4950923;29;20051;-51
2023/11/19 08:59:01;;;;;;;2.15;1.33;;;11.90;99.90;;;;;;4984359;28;20027;-52
2023/11/19 09:01:26;;;;;;;3.58;1.52;;;11.90;99.90;;;;;;4981390;28;20072;-51
2023/11/19 09:03:52;;;;;;;2.30;1.30;;;11.90;99.90;;;;;;4965122;29;20039;-51
2023/11/19 09:06:17;;;;;;;2.60;1.48;;;12.00;99.90;;;;;;4984337;28;20031;-52
2023/11/19 09:08:43;;;;;;;2.05;1.25;;;12.00;99.90;;;;;;4983705;28;20042;-52
2023/11/19 09:11:09;;;;;;;4.10;1.58;;;12.00;99.90;;;;;;4984226;28;20035;-51
2023/11/19 09:13:35;;;;;;;7.90;1.70;;;12.00;99.90;;;;;;4984312;28;20081;-51
2023/11/19 09:16:03;;;;;;;4.22;1.40;;;12.00;99.90;;;;;;4984882;28;20471;-51
2023/11/19 09:18:29;;;;;;;3.60;1.40;;;12.10;99.90;;;;;;4993462;28;20027;-51
2023/11/19 09:20:55;;;;;;;7.22;1.90;;;12.10;99.90;;;;;;4968059;28;20028;-51
2023/11/19 09:23:20;;;;;;;4.72;1.40;;;12.10;99.90;;;;;;4984491;28;20033;-52
2023/11/19 09:25:46;;;;;;;9.23;1.42;;;12.10;99.90;;;;;;4982813;28;20031;-51
2023/11/19 09:28:13;;;;;;;2.65;1.35;;;12.10;99.90;;;;;;4972699;28;20094;-51
2023/11/19 09:30:38;;;;;;;4.55;1.40;;;12.20;99.90;;;;;;4966033;28;21239;-52
2023/11/19 09:33:04;;;;;;;2.42;1.17;;;12.20;99.90;;;;;;4982420;28;20058;-51
2023/11/19 09:35:29;;;;;;;2.70;1.20;;;12.20;99.90;;;;;;4986818;28;20023;-52
2023/11/19 09:37:55;;;;;;;10.82;1.35;;;12.30;99.90;;;;;;4985520;28;20030;-51
2023/11/19 09:40:20;;;;;;;8.73;1.75;;;12.30;99.90;;;;;;4978630;28;20031;-51
2023/11/19 09:42:47;;;;;;;24.35;2.40;;;12.30;99.90;;;;;;4977676;28;20111;-51
2023/11/19 09:45:16;;;;;;;20.23;2.72;;;12.30;99.90;;;;;;4968107;28;20038;-51
2023/11/19 09:47:45;;;;;;;29.45;3.33;;;12.40;99.90;;;;;;4967844;29;20041;-51
2023/11/19 09:50:21;;;;;;;19.33;3.22;;;12.40;99.90;;;;;;4972151;28;20042;-51
2023/11/19 09:52:46;;;;;;;44.92;4.28;;;12.40;99.90;;;;;;4971157;28;20046;-51
2023/11/19 09:55:12;;;;;;;27.20;3.88;;;12.50;99.90;;;;;;4983703;28;20395;-51
2023/11/19 09:57:38;;;;;;;44.67;4.85;;;12.50;99.90;;;;;;4977638;28;20058;-51
2023/11/19 10:00:05;;;;;;;34.22;4.10;;;12.60;99.90;;;;;;4980414;28;20396;-52
2023/11/19 10:02:36;;;;;;;63.03;6.40;;;12.60;99.90;;;;;;4977360;28;20031;-52
2023/11/19 10:05:03;;;;;;;66.75;8.93;;;12.60;99.90;;;;;;4979702;28;20114;-52
2023/11/19 10:07:29;;;;;;;80.05;8.40;;;12.60;99.90;;;;;;4975898;28;20027;-52
2023/11/19 10:09:55;;;;;;;92.68;10.05;;;12.60;99.90;;;;;;4967080;28;20035;-52
2023/11/19 10:12:20;;;;;;;126.03;11.57;;;12.70;99.90;;;;;;4969622;28;20061;-51
2023/11/19 10:14:46;;;;;;;79.38;8.77;;;12.70;99.90;;;;;;4965729;29;20030;-51
2023/11/19 10:17:11;;;;;;;90.25;9.27;;;12.70;99.90;;;;;;4982646;28;20095;-51
2023/11/19 10:19:39;;;;;;;109.82;10.88;;;12.80;99.90;;;;;;4966179;28;20027;-51
2023/11/19 10:22:05;;;;;;;117.47;11.18;;;12.80;99.90;;;;;;4981246;28;20059;-52
2023/11/19 10:24:34;;;;;;;104.90;10.38;;;12.80;99.90;;;;;;4988444;28;20050;-51
2023/11/19 10:27:02;;;;;;;91.00;8.85;;;12.90;99.90;;;;;;4966212;28;20027;-52
2023/11/19 10:29:29;;;;;;;79.50;8.43;;;12.90;99.90;;;;;;4981278;28;20031;-51
2023/11/19 10:31:58;;;;;;;111.55;11.85;;;13.00;99.90;;;;;;4980786;28;20582;-52
2023/11/19 10:34:27;;;;;;;110.72;12.55;;;13.00;99.90;;;;;;4977903;28;20103;-52
2023/11/19 10:36:52;;;;;;;140.20;14.25;;;13.10;99.90;;;;;;4962862;28;20046;-51
2023/11/19 10:39:18;;;;;;;128.80;13.50;;;13.10;99.90;;;;;;4959947;28;20507;-51
2023/11/19 10:41:44;;;;;;;165.13;11.95;;;13.10;99.90;;;;;;4963860;28;20023;-52
2023/11/19 10:44:09;;;;;;;133.20;14.13;;;13.20;99.90;;;;;;4964859;29;20038;-51
2023/11/19 10:46:39;;;;;;;132.93;11.35;;;13.20;99.90;;;;;;4978924;28;20043;-52
2023/11/19 10:49:06;;;;;;;98.45;9.57;;;13.30;99.90;;;;;;4978201;28;20046;-51
2023/11/19 10:51:32;;;;;;;115.28;10.35;;;13.40;99.90;;;;;;4980111;28;20058;-52
2023/11/19 10:54:07;;;;;;;152.27;13.23;;;13.50;99.90;;;;;;4982833;28;20447;-51
2023/11/19 10:56:33;;;;;;;129.18;12.55;;;13.40;99.90;;;;;;4977238;28;20054;-51
2023/11/19 10:59:00;;;;;;;140.68;13.15;;;13.40;99.90;;;;;;4964928;29;20050;-51
2023/11/19 11:01:29;;;;;;;162.18;16.52;;;13.50;99.90;;;;;;4979664;28;20394;-51
2023/11/19 11:03:56;;;;;;;150.32;15.23;;;13.40;99.90;;;;;;4985230;28;20028;-51
2023/11/19 11:06:22;;;;;;;191.27;17.70;;;13.40;99.90;;;;;;4980092;28;20435;-51
2023/11/19 11:08:48;;;;;;;193.77;16.17;;;13.50;99.90;;;;;;4964441;29;20059;-52
2023/11/19 11:11:17;;;;;;;161.93;15.25;;;13.50;99.90;;;;;;4964719;29;20031;-52
2023/11/19 11:13:43;;;;;;;148.70;13.82;;;13.60;99.90;;;;;;4977791;28;20031;-51
2023/11/19 11:16:08;;;;;;;146.10;15.65;;;13.60;99.90;;;;;;4957386;28;20061;-51
2023/11/19 11:18:34;;;;;;;115.40;13.15;;;13.60;99.90;;;;;;4961607;29;20527;-51
2023/11/19 11:21:05;;;;;;;163.45;15.60;;;13.70;99.90;;;;;;4980469;28;20059;-51
2023/11/19 11:23:54;;;;;;;150.75;15.02;;;13.70;99.90;;;;;;4977604;28;20063;-51
2023/11/19 11:26:25;;;;;;;186.60;18.75;;;13.80;99.90;;;;;;4976644;28;21132;-52
2023/11/19 11:29:03;;;;;;;207.18;18.63;;;13.80;99.90;;;;;;4964116;28;20413;-51
2023/11/19 11:32:04;;;;;;;188.98;17.92;;;13.80;99.90;;;;;;4966263;28;20023;-51
2023/11/19 11:34:55;;;;;;;154.40;17.35;;;13.80;99.90;;;;;;4971412;28;20110;-51
2023/11/19 11:37:33;;;;;;;134.40;16.05;;;13.80;99.90;;;;;;4956390;29;20031;-52
2023/11/19 11:39:59;;;;;;;226.68;20.10;;;13.90;99.90;;;;;;4983311;28;20035;-51
2023/11/19 11:42:25;;;;;;;197.10;19.58;;;13.90;99.90;;;;;;4967889;28;20050;-51
2023/11/19 11:45:10;;;;;;;208.25;20.05;;;13.90;99.90;;;;;;4983259;28;20039;-52
2023/11/19 11:47:47;;;;;;;175.77;19.20;;;14.10;99.90;;;;;;4965834;29;20027;-52
2023/11/19 11:50:16;;;;;;;168.40;17.35;;;14.00;99.90;;;;;;4968116;28;20046;-51
2023/11/19 11:52:57;;;;;;;191.27;17.85;;;14.00;99.90;;;;;;4968064;28;20050;-51
2023/11/19 11:55:26;;;;;;;213.23;20.55;;;14.00;99.90;;;;;;4956320;29;20085;-51
2023/11/19 11:57:52;;;;;;;218.15;22.52;;;14.00;99.90;;;;;;4984495;28;20030;-51
2023/11/19 12:00:27;;;;;;;223.70;21.20;;;14.10;99.90;;;;;;4969681;28;20023;-51
2023/11/19 12:03:01;;;;;;;186.95;19.10;;;14.10;99.90;;;;;;4980675;28;20035;-52
2023/11/19 12:05:27;;;;;;;245.35;23.58;;;14.10;99.90;;;;;;4979932;28;20042;-51
2023/11/19 12:07:58;;;;;;;203.18;22.02;;;14.10;99.90;;;;;;4982034;28;20035;-51
2023/11/19 12:10:24;;;;;;;228.77;22.02;;;14.10;99.90;;;;;;4973778;28;20027;-51
2023/11/19 12:12:49;;;;;;;239.40;23.25;;;14.10;99.90;;;;;;4983529;28;20114;-51
2023/11/19 12:15:15;;;;;;;234.95;22.08;;;14.20;99.90;;;;;;4966112;28;20035;-51
2023/11/19 12:17:51;;;;;;;265.98;24.48;;;14.20;99.90;;;;;;4967640;28;20031;-51
2023/11/19 12:20:17;;;;;;;261.95;22.98;;;14.20;99.90;;;;;;4971516;28;20032;-51
2023/11/19 12:22:43;;;;;;;232.32;23.70;;;14.30;99.90;;;;;;4966539;28;20037;-52
2023/11/19 12:25:10;;;;;;;291.13;23.70;;;14.40;99.90;;;;;;4981480;28;20443;-50
2023/11/19 12:27:36;;;;;;;275.48;24.90;;;14.40;99.90;;;;;;4980932;28;20023;-50
2023/11/19 12:30:05;;;;;;;252.25;24.27;;;14.50;99.90;;;;;;4983379;28;20046;-52
2023/11/19 12:32:41;;;;;;;223.77;23.05;;;14.50;99.90;;;;;;4981339;28;20055;-51